createdAt,value
2019-03-31T00:00:08.131Z,78.42
2019-03-31T00:02:39.349Z,77.67
2019-03-31T00:05:10.853Z,78.25
2019-03-31T00:07:42.030Z,78.67
2019-03-31T00:10:13.584Z,80.40
2019-03-31T00:12:44.810Z,80.35
2019-03-31T00:15:16.050Z,81.56
2019-03-31T00:17:47.230Z,81.42
2019-03-31T00:20:18.390Z,82.45
2019-03-31T00:22:49.568Z,83.40
2019-03-31T00:25:20.800Z,83.63
2019-03-31T00:27:51.905Z,83.12
2019-03-31T00:30:23.094Z,84.29
2019-03-31T00:32:54.344Z,85.71
2019-03-31T00:35:25.593Z,85.38
2019-03-31T00:37:56.765Z,85.89
2019-03-31T00:40:27.960Z,86.78
2019-03-31T00:42:59.294Z,86.85
2019-03-31T00:45:30.500Z,87.44
2019-03-31T00:48:01.942Z,87.07
2019-03-31T00:50:33.234Z,87.29
2019-03-31T00:53:04.403Z,87.24
2019-03-31T00:55:35.689Z,87.41
2019-03-31T00:58:06.982Z,87.80
2019-03-31T01:00:57.744Z,88.75
2019-03-31T01:03:29.700Z,88.70
2019-03-31T01:06:01.010Z,88.77
2019-03-31T01:08:34.878Z,88.59
2019-03-31T01:11:13.439Z,88.71
2019-03-31T01:13:45.743Z,88.71
2019-03-31T01:16:18.220Z,88.89
2019-03-31T01:18:49.576Z,89.47
2019-03-31T01:21:21.300Z,89.42
2019-03-31T01:23:52.572Z,89.49
2019-03-31T01:26:23.820Z,88.70
2019-03-31T01:28:56.726Z,89.21
2019-03-31T01:31:28.419Z,89.13
2019-03-31T01:34:00.048Z,88.54
2019-03-31T01:36:31.221Z,89.24
2019-03-31T01:39:02.407Z,89.71
2019-03-31T01:41:33.589Z,90.14
2019-03-31T01:44:04.844Z,90.64
2019-03-31T01:46:36.149Z,90.12
2019-03-31T01:49:07.659Z,89.61
2019-03-31T01:51:38.777Z,88.64
2019-03-31T01:54:09.998Z,88.32
2019-03-31T01:56:44.609Z,88.31
2019-03-31T01:59:14.394Z,88.12
2019-03-31T02:01:45.746Z,87.39
2019-03-31T02:04:16.941Z,86.77
2019-03-31T02:06:48.359Z,85.68
2019-03-31T02:09:19.546Z,84.71
2019-03-31T02:11:50.808Z,83.80
2019-03-31T02:14:22.048Z,82.41
2019-03-31T02:16:53.294Z,82.73
2019-03-31T02:19:24.408Z,82.60
2019-03-31T02:21:55.657Z,81.90
2019-03-31T02:24:26.864Z,81.28
2019-03-31T02:26:58.264Z,80.86
2019-03-31T02:29:29.483Z,82.00
2019-03-31T02:32:00.676Z,82.98
2019-03-31T02:34:31.822Z,83.39
2019-03-31T02:37:03.162Z,83.34
2019-03-31T02:39:34.434Z,81.86
2019-03-31T02:42:06.005Z,80.57
2019-03-31T02:44:37.090Z,80.39
2019-03-31T02:47:08.255Z,79.45
2019-03-31T02:49:39.488Z,79.60
2019-03-31T02:52:10.941Z,79.93
2019-03-31T02:54:42.170Z,80.23
2019-03-31T02:57:13.634Z,80.49
2019-03-31T02:59:45.452Z,80.47
2019-03-31T03:02:17.621Z,80.32
2019-03-31T03:04:50.868Z,80.38
2019-03-31T03:07:23.511Z,80.93
2019-03-31T03:09:55.598Z,81.23
2019-03-31T03:12:30.468Z,82.38
2019-03-31T03:15:04.955Z,82.78
2019-03-31T03:17:36.101Z,83.15
2019-03-31T03:20:07.931Z,82.89
2019-03-31T03:22:39.029Z,83.25
2019-03-31T03:25:10.505Z,82.98
2019-03-31T03:27:41.832Z,82.10
2019-03-31T03:30:13.685Z,82.21
2019-03-31T03:33:12.407Z,82.34
2019-03-31T03:35:17.959Z,82.31
2019-03-31T03:37:49.639Z,81.88
2019-03-31T03:40:20.826Z,81.49
2019-03-31T03:42:52.033Z,81.82
2019-03-31T03:45:23.280Z,81.76
2019-03-31T03:47:54.359Z,81.28
2019-03-31T03:50:25.866Z,81.54
2019-03-31T03:52:57.095Z,82.33
2019-03-31T03:55:28.220Z,83.47
2019-03-31T03:57:59.296Z,83.16
2019-03-31T04:00:30.595Z,82.79
2019-03-31T04:03:01.797Z,83.62
2019-03-31T04:05:32.989Z,83.18
2019-03-31T04:08:04.094Z,82.37
2019-03-31T04:11:22.885Z,82.75
2019-03-31T04:13:54.513Z,83.71
2019-03-31T04:16:25.880Z,84.38
2019-03-31T04:18:57.230Z,83.41
2019-03-31T04:21:28.644Z,83.14
2019-03-31T04:24:00.146Z,83.14
2019-03-31T04:26:31.441Z,84.04
2019-03-31T04:29:02.636Z,83.78
2019-03-31T04:31:33.907Z,83.75
2019-03-31T04:34:05.226Z,83.63
2019-03-31T04:36:36.477Z,84.57
2019-03-31T04:39:09.599Z,85.06
2019-03-31T04:41:40.869Z,85.24
2019-03-31T04:44:12.205Z,85.10
2019-03-31T04:46:43.427Z,85.47
2019-03-31T04:49:14.565Z,85.00
2019-03-31T04:51:45.779Z,83.17
2019-03-31T04:54:17.089Z,81.33
2019-03-31T04:56:48.209Z,79.95
2019-03-31T04:59:19.404Z,79.07
2019-03-31T05:01:50.609Z,77.88
2019-03-31T05:04:21.808Z,76.83
2019-03-31T05:06:53.845Z,76.44
2019-03-31T05:09:25.088Z,76.52
2019-03-31T05:11:56.285Z,75.94
2019-03-31T05:14:46.256Z,75.86
2019-03-31T05:17:17.430Z,75.42
2019-03-31T05:19:48.535Z,74.34
2019-03-31T05:22:19.799Z,76.26
2019-03-31T05:24:51.054Z,76.34
2019-03-31T05:27:22.358Z,74.19
2019-03-31T05:29:53.581Z,73.72
2019-03-31T05:32:24.799Z,71.45
2019-03-31T05:34:55.938Z,71.27
2019-03-31T05:37:27.220Z,70.35
2019-03-31T05:39:58.393Z,68.13
2019-03-31T05:42:29.678Z,67.94
2019-03-31T05:45:00.880Z,67.28
2019-03-31T05:47:32.088Z,67.73
2019-03-31T05:50:03.473Z,68.78
2019-03-31T05:52:34.699Z,69.08
2019-03-31T05:55:06.293Z,70.26
2019-03-31T05:57:37.598Z,66.07
2019-03-31T06:00:09.555Z,63.11
2019-03-31T06:02:40.694Z,59.55
2019-03-31T06:05:12.154Z,55.45
2019-03-31T06:07:44.299Z,54.21
2019-03-31T06:10:18.028Z,53.33
2019-03-31T06:12:49.571Z,51.62
2019-03-31T06:15:22.070Z,50.37
2019-03-31T06:17:54.480Z,52.91
2019-03-31T06:20:25.809Z,54.49
2019-03-31T06:22:57.328Z,56.36
2019-03-31T06:25:28.670Z,58.90
2019-03-31T06:27:59.988Z,60.60
2019-03-31T06:30:31.605Z,60.58
2019-03-31T06:33:03.224Z,62.92
2019-03-31T06:35:34.470Z,63.88
2019-03-31T06:38:05.795Z,63.02
2019-03-31T06:40:37.234Z,64.34
2019-03-31T06:43:08.651Z,66.96
2019-03-31T06:45:40.245Z,66.91
2019-03-31T06:48:11.824Z,65.51
2019-03-31T06:50:43.360Z,67.33
2019-03-31T06:53:14.957Z,67.98
2019-03-31T06:55:46.493Z,69.86
2019-03-31T06:58:17.918Z,68.67
2019-03-31T07:00:49.164Z,69.23
2019-03-31T07:03:20.357Z,68.29
2019-03-31T07:05:51.806Z,68.28
2019-03-31T07:08:23.245Z,68.75
2019-03-31T07:10:54.683Z,68.34
2019-03-31T07:13:25.928Z,68.42
2019-03-31T07:15:58.176Z,69.01
2019-03-31T07:18:29.876Z,68.45
2019-03-31T07:21:01.353Z,67.85
2019-03-31T07:23:35.041Z,66.38
2019-03-31T07:26:06.560Z,64.37
2019-03-31T07:28:38.015Z,64.14
2019-03-31T07:31:11.605Z,61.40
2019-03-31T07:33:42.777Z,60.67
2019-03-31T07:36:14.089Z,59.23
2019-03-31T07:38:45.420Z,60.02
2019-03-31T07:41:16.766Z,60.41
2019-03-31T07:43:48.279Z,60.28
2019-03-31T07:46:19.508Z,59.54
2019-03-31T07:48:50.746Z,59.12
2019-03-31T07:51:22.324Z,59.42
2019-03-31T07:53:53.649Z,59.68
2019-03-31T07:56:25.017Z,58.00
2019-03-31T07:58:56.212Z,55.52
2019-03-31T08:01:27.859Z,54.42
2019-03-31T08:04:00.919Z,54.27
2019-03-31T08:06:32.568Z,54.73
2019-03-31T08:09:07.368Z,54.44
2019-03-31T08:11:38.700Z,54.26
2019-03-31T08:14:09.995Z,53.77
2019-03-31T08:16:41.186Z,50.87
2019-03-31T08:19:12.315Z,46.01
2019-03-31T08:21:43.567Z,41.32
2019-03-31T08:24:14.777Z,40.30
2019-03-31T08:26:45.914Z,38.91
2019-03-31T08:29:17.005Z,40.79
2019-03-31T08:31:49.113Z,37.86
2019-03-31T08:34:20.485Z,34.22
2019-03-31T08:36:51.785Z,38.50
2019-03-31T08:39:29.230Z,39.75
2019-03-31T08:42:00.606Z,37.31
2019-03-31T08:44:31.888Z,34.35
2019-03-31T08:47:03.472Z,36.93
2019-03-31T08:49:34.673Z,38.66
2019-03-31T08:52:06.298Z,35.99
2019-03-31T08:54:38.026Z,38.49
2019-03-31T08:57:09.459Z,40.38
2019-03-31T08:59:40.974Z,40.95
2019-03-31T09:02:31.829Z,41.68
2019-03-31T09:05:03.145Z,42.99
2019-03-31T09:07:34.404Z,41.98
2019-03-31T09:10:07.329Z,42.50
2019-03-31T09:12:39.217Z,39.45
2019-03-31T09:15:13.180Z,36.14
2019-03-31T09:18:01.317Z,35.22
2019-03-31T09:20:32.548Z,32.75
2019-03-31T09:23:03.899Z,33.31
2019-03-31T09:25:35.216Z,32.59
2019-03-31T09:28:06.428Z,33.12
2019-03-31T09:30:37.798Z,31.23
2019-03-31T09:33:09.109Z,31.16
2019-03-31T09:35:40.228Z,31.15
2019-03-31T09:38:11.445Z,32.51
2019-03-31T09:40:42.715Z,32.84
2019-03-31T09:43:13.944Z,33.10
2019-03-31T09:45:45.219Z,33.12
2019-03-31T09:48:18.885Z,32.28
2019-03-31T09:50:50.206Z,30.81
2019-03-31T09:53:21.519Z,31.97
2019-03-31T09:55:52.890Z,28.80
2019-03-31T09:58:24.147Z,30.83
2019-03-31T10:00:55.621Z,33.80
2019-03-31T10:03:27.010Z,32.05
2019-03-31T10:06:10.057Z,31.05
2019-03-31T10:08:32.145Z,31.90
2019-03-31T10:11:03.489Z,28.85
2019-03-31T10:13:34.768Z,29.35
2019-03-31T10:16:05.991Z,29.38
2019-03-31T10:18:37.175Z,28.87
2019-03-31T10:21:08.482Z,29.53
2019-03-31T10:23:39.733Z,29.85
2019-03-31T10:26:11.088Z,31.15
2019-03-31T10:28:42.250Z,30.16
2019-03-31T10:31:13.379Z,27.94
2019-03-31T10:33:44.650Z,28.86
2019-03-31T10:36:16.284Z,30.26
2019-03-31T10:38:47.610Z,28.97
2019-03-31T10:41:18.908Z,30.90
2019-03-31T10:43:50.248Z,30.38
2019-03-31T10:46:21.591Z,29.30
2019-03-31T10:48:52.766Z,28.86
2019-03-31T10:51:24.065Z,30.74
2019-03-31T10:53:55.263Z,31.10
2019-03-31T10:56:26.603Z,30.49
2019-03-31T10:58:58.023Z,29.45
2019-03-31T11:01:29.325Z,28.76
2019-03-31T11:04:00.572Z,29.22
2019-03-31T11:06:32.119Z,29.87
2019-03-31T11:09:05.068Z,31.11
2019-03-31T11:11:36.589Z,31.67
2019-03-31T11:14:07.854Z,33.97
2019-03-31T11:16:39.009Z,34.68
2019-03-31T11:19:10.167Z,36.41
2019-03-31T11:21:47.474Z,37.17
2019-03-31T11:24:18.787Z,38.84
2019-03-31T11:26:50.089Z,39.34
2019-03-31T11:29:21.253Z,37.81
2019-03-31T11:31:52.394Z,39.11
2019-03-31T11:34:23.555Z,38.48
2019-03-31T11:36:54.983Z,38.40
2019-03-31T11:39:26.389Z,38.44
2019-03-31T11:41:57.708Z,39.62
2019-03-31T11:44:29.031Z,38.39
2019-03-31T11:47:00.410Z,39.66
2019-03-31T11:49:31.690Z,39.63
2019-03-31T11:52:02.894Z,39.44
2019-03-31T11:54:34.164Z,39.88
2019-03-31T11:57:05.390Z,40.48
2019-03-31T11:59:36.558Z,40.00
2019-03-31T12:02:08.066Z,39.15
2019-03-31T12:04:39.470Z,39.79
2019-03-31T12:07:10.698Z,39.82
2019-03-31T12:09:41.873Z,39.09
2019-03-31T12:12:13.170Z,40.05
2019-03-31T12:14:44.501Z,39.66
2019-03-31T12:17:16.332Z,41.60
2019-03-31T12:19:48.858Z,41.63
2019-03-31T12:22:20.369Z,40.22
2019-03-31T12:24:51.621Z,40.75
2019-03-31T12:27:23.019Z,38.70
2019-03-31T12:29:55.453Z,39.46
2019-03-31T12:32:26.773Z,40.86
2019-03-31T12:34:58.063Z,42.21
2019-03-31T12:37:41.695Z,40.78
2019-03-31T12:40:02.249Z,42.04
2019-03-31T12:42:33.568Z,40.19
2019-03-31T12:45:05.739Z,41.94
2019-03-31T12:47:37.007Z,43.22
2019-03-31T12:50:08.983Z,42.81
2019-03-31T12:52:46.512Z,42.84
2019-03-31T12:55:13.327Z,42.81
2019-03-31T12:57:44.447Z,43.36
2019-03-31T13:00:16.720Z,43.86
2019-03-31T13:02:48.046Z,45.19
2019-03-31T13:05:19.435Z,43.03
2019-03-31T13:07:56.683Z,43.43
2019-03-31T13:10:23.684Z,43.63
2019-03-31T13:12:55.020Z,44.56
2019-03-31T13:15:26.326Z,47.03
2019-03-31T13:17:57.885Z,47.04
2019-03-31T13:20:29.340Z,47.69
2019-03-31T13:23:00.754Z,48.23
2019-03-31T13:25:32.111Z,49.46
2019-03-31T13:28:05.659Z,50.15
2019-03-31T13:30:36.363Z,48.88
2019-03-31T13:33:16.666Z,49.67
2019-03-31T13:35:47.987Z,50.31
2019-03-31T13:38:19.221Z,49.31
2019-03-31T13:40:50.717Z,49.93
2019-03-31T13:43:22.029Z,50.75
2019-03-31T13:45:53.355Z,50.36
2019-03-31T13:48:24.874Z,50.78
2019-03-31T13:50:56.080Z,49.13
2019-03-31T13:53:27.464Z,49.30
2019-03-31T13:55:58.667Z,50.67
2019-03-31T13:58:30.529Z,49.99
2019-03-31T14:01:02.193Z,50.59
2019-03-31T14:03:33.640Z,51.02
2019-03-31T14:06:04.940Z,50.79
2019-03-31T14:08:36.104Z,49.85
2019-03-31T14:11:08.074Z,50.08
2019-03-31T14:13:39.227Z,49.90
2019-03-31T14:16:10.588Z,50.05
2019-03-31T14:18:41.808Z,50.15
2019-03-31T14:21:12.939Z,50.84
2019-03-31T14:23:44.280Z,50.74
2019-03-31T14:26:15.519Z,50.49
2019-03-31T14:28:46.598Z,50.27
2019-03-31T14:31:17.828Z,52.37
2019-03-31T14:33:49.321Z,51.92
2019-03-31T14:36:20.589Z,52.53
2019-03-31T14:38:52.064Z,53.33
2019-03-31T14:41:23.528Z,52.66
2019-03-31T14:43:54.870Z,53.96
2019-03-31T14:46:26.150Z,53.82
2019-03-31T14:48:57.386Z,54.54
2019-03-31T14:51:28.711Z,53.50
2019-03-31T14:54:00.175Z,54.61
2019-03-31T14:56:31.462Z,54.61
2019-03-31T14:59:02.905Z,54.43
2019-03-31T15:01:33.999Z,54.37
2019-03-31T15:04:05.319Z,55.00
2019-03-31T15:06:36.495Z,55.80
2019-03-31T15:09:09.844Z,56.10
2019-03-31T15:11:41.018Z,56.01
2019-03-31T15:14:12.270Z,56.92
2019-03-31T15:16:43.513Z,56.75
2019-03-31T15:19:14.717Z,55.09
2019-03-31T15:21:45.905Z,55.22
2019-03-31T15:24:17.208Z,56.20
2019-03-31T15:26:48.495Z,56.74
2019-03-31T15:29:19.685Z,56.99
2019-03-31T15:31:51.124Z,56.81
2019-03-31T15:34:22.449Z,56.53
2019-03-31T15:36:53.664Z,56.85
2019-03-31T15:39:24.984Z,56.87
2019-03-31T15:41:56.341Z,57.59
2019-03-31T15:44:27.589Z,57.22
2019-03-31T15:46:58.869Z,57.38
2019-03-31T15:49:30.237Z,57.39
2019-03-31T15:52:01.484Z,57.27
2019-03-31T15:54:32.802Z,57.08
2019-03-31T15:57:04.185Z,56.87
2019-03-31T15:59:39.008Z,57.01
2019-03-31T16:02:12.375Z,57.82
2019-03-31T16:04:44.544Z,57.35
2019-03-31T16:07:21.689Z,57.90
2019-03-31T16:09:52.333Z,57.77
2019-03-31T16:12:23.055Z,57.88
2019-03-31T16:14:54.710Z,57.34
2019-03-31T16:17:26.265Z,56.09
2019-03-31T16:20:04.615Z,56.64
2019-03-31T16:22:38.659Z,56.35
2019-03-31T16:25:21.078Z,57.47
2019-03-31T16:27:52.390Z,58.78
2019-03-31T16:30:23.315Z,60.17
2019-03-31T16:32:57.694Z,60.96
2019-03-31T16:35:30.670Z,61.80
2019-03-31T16:38:01.231Z,61.98
2019-03-31T16:40:31.864Z,62.72
2019-03-31T16:43:03.470Z,62.36
2019-03-31T16:45:36.460Z,62.99
2019-03-31T16:48:07.044Z,63.18
2019-03-31T16:50:40.635Z,63.16
2019-03-31T16:53:14.199Z,63.13
2019-03-31T16:55:46.002Z,63.38
2019-03-31T16:58:18.674Z,64.29
2019-03-31T17:00:49.268Z,64.58
2019-03-31T17:03:21.120Z,64.03
2019-03-31T17:05:54.122Z,64.31
2019-03-31T17:08:24.734Z,64.74
2019-03-31T17:10:55.194Z,64.54
2019-03-31T17:13:25.801Z,64.86
2019-03-31T17:15:56.278Z,66.04
2019-03-31T17:18:27.084Z,65.66
2019-03-31T17:21:08.340Z,65.48
2019-03-31T17:23:40.988Z,65.64
2019-03-31T17:26:13.880Z,65.45
2019-03-31T17:28:44.469Z,65.28
2019-03-31T17:31:15.253Z,64.71
2019-03-31T17:33:46.003Z,65.65
2019-03-31T17:36:18.212Z,65.47
2019-03-31T17:38:49.905Z,65.45
2019-03-31T17:41:20.621Z,66.51
2019-03-31T17:43:51.249Z,66.10
2019-03-31T17:46:23.373Z,67.02
2019-03-31T17:48:56.268Z,67.12
2019-03-31T17:51:29.985Z,67.24
2019-03-31T17:54:06.268Z,67.93
2019-03-31T17:56:36.484Z,67.62
2019-03-31T17:59:08.918Z,67.10
2019-03-31T18:01:40.954Z,67.84
2019-03-31T18:04:14.743Z,67.74
2019-03-31T18:06:47.680Z,68.11
2019-03-31T18:09:24.335Z,68.00
2019-03-31T18:11:57.575Z,68.28
2019-03-31T18:14:29.184Z,68.80
2019-03-31T18:17:03.319Z,69.68
2019-03-31T18:19:33.904Z,69.85
2019-03-31T18:22:16.384Z,70.09
2019-03-31T18:24:40.639Z,70.54
2019-03-31T18:27:16.414Z,70.89
2019-03-31T18:29:52.249Z,71.05
2019-03-31T18:32:29.479Z,71.68
2019-03-31T18:35:09.994Z,72.23
2019-03-31T18:37:40.605Z,72.55
2019-03-31T18:40:12.328Z,72.58
2019-03-31T18:42:48.105Z,72.72
2019-03-31T18:45:20.015Z,72.76
2019-03-31T18:47:50.548Z,72.46
2019-03-31T18:50:21.134Z,72.43
2019-03-31T18:52:52.785Z,72.02
2019-03-31T18:55:35.538Z,71.57
2019-03-31T18:58:21.811Z,72.54
2019-03-31T19:01:10.029Z,72.52
2019-03-31T19:04:12.372Z,72.58
2019-03-31T19:06:54.729Z,72.95
2019-03-31T19:09:35.493Z,72.57
2019-03-31T19:12:27.322Z,71.89
2019-03-31T19:15:17.641Z,71.87
2019-03-31T19:18:07.444Z,71.60
2019-03-31T19:21:11.511Z,71.62
2019-03-31T19:23:54.192Z,71.67
2019-03-31T19:26:48.742Z,72.51
2019-03-31T19:29:41.118Z,72.77
2019-03-31T19:32:21.189Z,73.24
2019-03-31T19:35:22.736Z,73.48
2019-03-31T19:38:14.116Z,73.55
2019-03-31T19:41:05.821Z,74.20
2019-03-31T19:43:55.104Z,74.43
2019-03-31T19:46:35.772Z,74.46
2019-03-31T19:49:26.335Z,74.41
2019-03-31T19:52:16.084Z,74.12
2019-03-31T19:55:09.655Z,72.84
2019-03-31T19:57:58.900Z,68.75
2019-03-31T20:00:53.031Z,65.63
2019-03-31T20:03:44.645Z,64.84
2019-03-31T20:06:27.750Z,63.17
2019-03-31T20:09:13.914Z,63.23
2019-03-31T20:12:07.668Z,61.75
2019-03-31T20:15:09.915Z,62.50
2019-03-31T20:18:00.320Z,62.94
2019-03-31T20:20:49.524Z,62.78
2019-03-31T20:23:34.680Z,62.58
2019-03-31T20:26:24.101Z,61.93
2019-03-31T20:29:10.584Z,61.53
2019-03-31T20:31:59.987Z,61.41
2019-03-31T20:34:44.764Z,60.25
2019-03-31T20:37:35.965Z,60.53
2019-03-31T20:40:22.200Z,61.16
2019-03-31T20:43:11.479Z,61.20
2019-03-31T20:45:43.839Z,60.30
2019-03-31T20:48:16.488Z,60.46
2019-03-31T20:50:46.879Z,60.18
2019-03-31T20:53:19.388Z,60.33
2019-03-31T20:55:49.845Z,60.58
2019-03-31T20:58:20.224Z,60.44
2019-03-31T21:00:50.595Z,60.62
2019-03-31T21:03:21.148Z,59.33
2019-03-31T21:05:51.584Z,59.99
2019-03-31T21:08:22.164Z,60.00
2019-03-31T21:10:52.455Z,60.10
2019-03-31T21:13:22.855Z,59.79
2019-03-31T21:15:53.207Z,60.19
2019-03-31T21:18:23.654Z,60.08
2019-03-31T21:20:54.146Z,60.25
2019-03-31T21:23:24.528Z,59.97
2019-03-31T21:25:54.898Z,59.98
2019-03-31T21:28:25.307Z,58.92
2019-03-31T21:30:55.755Z,59.47
2019-03-31T21:33:26.093Z,59.01
2019-03-31T21:35:56.374Z,57.68
2019-03-31T21:38:26.839Z,58.04
2019-03-31T21:40:57.167Z,58.46
2019-03-31T21:43:27.514Z,59.02
2019-03-31T21:45:57.884Z,58.68
2019-03-31T21:48:28.308Z,58.72
2019-03-31T21:50:58.698Z,58.91
2019-03-31T21:53:28.984Z,58.53
2019-03-31T21:55:59.390Z,59.26
2019-03-31T21:58:29.800Z,58.73
2019-03-31T22:01:00.521Z,58.64
2019-03-31T22:03:30.870Z,58.58
2019-03-31T22:06:01.315Z,57.17
2019-03-31T22:08:31.740Z,57.46
2019-03-31T22:11:02.134Z,58.38
2019-03-31T22:13:32.541Z,57.96
2019-03-31T22:16:03.074Z,58.53
2019-03-31T22:18:33.820Z,58.55
2019-03-31T22:21:04.251Z,56.79
2019-03-31T22:23:37.766Z,56.97
2019-03-31T22:26:08.300Z,56.92
2019-03-31T22:28:38.778Z,57.59
2019-03-31T22:31:09.340Z,57.67
2019-03-31T22:33:39.726Z,58.11
2019-03-31T22:36:29.109Z,58.57
2019-03-31T22:38:59.468Z,59.11
2019-03-31T22:41:29.855Z,58.66
2019-03-31T22:44:00.311Z,58.74
2019-03-31T22:46:30.700Z,58.75
2019-03-31T22:49:01.080Z,59.47
2019-03-31T22:51:31.456Z,59.01
2019-03-31T22:54:01.820Z,58.72
2019-03-31T22:56:32.166Z,59.56
2019-03-31T22:59:02.513Z,59.21
2019-03-31T23:01:33.238Z,58.60
2019-03-31T23:04:03.726Z,58.20
2019-03-31T23:06:34.091Z,59.66
2019-03-31T23:09:06.126Z,60.64
2019-03-31T23:11:36.670Z,60.66
2019-03-31T23:14:07.104Z,60.79
2019-03-31T23:16:37.639Z,59.64
2019-03-31T23:19:08.590Z,60.82
2019-03-31T23:21:38.972Z,61.03
2019-03-31T23:24:09.430Z,61.55
2019-03-31T23:26:39.944Z,61.28
2019-03-31T23:29:10.324Z,61.63
2019-03-31T23:31:40.673Z,61.37
2019-03-31T23:34:11.114Z,61.84
2019-03-31T23:36:41.521Z,61.78
2019-03-31T23:39:11.929Z,62.38
2019-03-31T23:41:42.269Z,62.79
2019-03-31T23:44:12.900Z,62.10
2019-03-31T23:46:43.440Z,62.24
2019-03-31T23:49:13.789Z,62.65
2019-03-31T23:51:44.170Z,62.00
2019-03-31T23:54:14.507Z,62.43
2019-03-31T23:56:44.954Z,62.51
2019-03-31T23:59:15.410Z,62.65
